sensor_id;sensor_type;location;lat;lon;timestamp;pressure;altitude;pressure_sealevel;temperature;humidity
63204;BME280;49297;43.210;27.914;2023-02-18T00:01:15;101720.41;;;6.78;56.68
63204;BME280;49297;43.210;27.914;2023-02-18T00:03:42;101725.75;;;6.77;56.92
63204;BME280;49297;43.210;27.914;2023-02-18T00:06:15;101721.72;;;6.71;56.99
63204;BME280;49297;43.210;27.914;2023-02-18T00:08:42;101720.38;;;6.64;57.09
63204;BME280;49297;43.210;27.914;2023-02-18T00:11:08;101704.75;;;6.61;56.92
63204;BME280;49297;43.210;27.914;2023-02-18T00:13:35;101708.31;;;6.60;57.04
63204;BME280;49297;43.210;27.914;2023-02-18T00:16:02;101703.75;;;6.63;57.26
63204;BME280;49297;43.210;27.914;2023-02-18T00:18:29;101705.25;;;6.67;56.83
63204;BME280;49297;43.210;27.914;2023-02-18T00:20:54;101701.69;;;6.69;56.80
63204;BME280;49297;43.210;27.914;2023-02-18T00:23:20;101696.31;;;6.70;57.05
63204;BME280;49297;43.210;27.914;2023-02-18T00:25:46;101690.03;;;6.73;57.08
63204;BME280;49297;43.210;27.914;2023-02-18T00:28:12;101689.09;;;6.74;56.74
63204;BME280;49297;43.210;27.914;2023-02-18T00:30:41;101685.53;;;6.75;56.42
63204;BME280;49297;43.210;27.914;2023-02-18T00:33:08;101683.47;;;6.80;56.26
63204;BME280;49297;43.210;27.914;2023-02-18T00:35:34;101676.25;;;6.83;56.24
63204;BME280;49297;43.210;27.914;2023-02-18T00:38:00;101677.00;;;6.85;56.44
63204;BME280;49297;43.210;27.914;2023-02-18T00:40:26;101667.31;;;6.86;56.24
63204;BME280;49297;43.210;27.914;2023-02-18T00:42:52;101661.03;;;6.89;55.96
63204;BME280;49297;43.210;27.914;2023-02-18T00:45:18;101663.66;;;6.89;55.58
63204;BME280;49297;43.210;27.914;2023-02-18T00:47:43;101661.72;;;6.92;55.35
63204;BME280;49297;43.210;27.914;2023-02-18T00:50:10;101648.91;;;7.00;54.75
63204;BME280;49297;43.210;27.914;2023-02-18T00:52:36;101655.41;;;7.09;54.52
63204;BME280;49297;43.210;27.914;2023-02-18T00:55:02;101650.81;;;7.13;54.56
63204;BME280;49297;43.210;27.914;2023-02-18T00:57:28;101657.69;;;7.15;54.70
63204;BME280;49297;43.210;27.914;2023-02-18T00:59:54;101647.25;;;7.14;54.66
63204;BME280;49297;43.210;27.914;2023-02-18T01:02:19;101643.78;;;7.13;55.03
63204;BME280;49297;43.210;27.914;2023-02-18T01:04:45;101644.78;;;7.11;54.79
63204;BME280;49297;43.210;27.914;2023-02-18T01:07:11;101638.88;;;7.07;55.64
63204;BME280;49297;43.210;27.914;2023-02-18T01:09:37;101634.06;;;6.99;55.87
63204;BME280;49297;43.210;27.914;2023-02-18T01:12:03;101631.78;;;6.93;56.79
63204;BME280;49297;43.210;27.914;2023-02-18T01:14:29;101620.88;;;6.85;56.45
63204;BME280;49297;43.210;27.914;2023-02-18T01:16:55;101627.44;;;6.78;57.46
63204;BME280;49297;43.210;27.914;2023-02-18T01:19:21;101633.16;;;6.70;57.60
63204;BME280;49297;43.210;27.914;2023-02-18T01:21:46;101629.47;;;6.58;58.40
63204;BME280;49297;43.210;27.914;2023-02-18T01:24:12;101627.38;;;6.49;58.68
63204;BME280;49297;43.210;27.914;2023-02-18T01:26:38;101620.09;;;6.38;58.99
63204;BME280;49297;43.210;27.914;2023-02-18T01:29:04;101624.19;;;6.28;59.53
63204;BME280;49297;43.210;27.914;2023-02-18T01:31:30;101622.00;;;6.20;59.60
63204;BME280;49297;43.210;27.914;2023-02-18T01:33:56;101626.09;;;6.10;59.90
63204;BME280;49297;43.210;27.914;2023-02-18T01:36:22;101618.06;;;5.97;60.16
63204;BME280;49297;43.210;27.914;2023-02-18T01:38:47;101613.16;;;5.89;60.53
63204;BME280;49297;43.210;27.914;2023-02-18T01:41:13;101616.16;;;5.83;60.76
63204;BME280;49297;43.210;27.914;2023-02-18T01:43:39;101622.75;;;5.75;60.92
63204;BME280;49297;43.210;27.914;2023-02-18T01:46:11;101623.75;;;5.72;61.31
63204;BME280;49297;43.210;27.914;2023-02-18T01:51:26;101625.44;;;5.57;62.05
63204;BME280;49297;43.210;27.914;2023-02-18T01:54:14;101620.44;;;5.52;62.14
63204;BME280;49297;43.210;27.914;2023-02-18T01:56:44;101621.31;;;5.53;61.97
63204;BME280;49297;43.210;27.914;2023-02-18T01:59:25;101613.41;;;5.53;61.77
63204;BME280;49297;43.210;27.914;2023-02-18T02:01:52;101606.38;;;5.53;61.96
63204;BME280;49297;43.210;27.914;2023-02-18T02:04:19;101602.91;;;5.53;62.09
63204;BME280;49297;43.210;27.914;2023-02-18T02:06:45;101586.28;;;5.52;61.99
63204;BME280;49297;43.210;27.914;2023-02-18T02:09:13;101585.28;;;5.55;61.84
63204;BME280;49297;43.210;27.914;2023-02-18T02:23:13;101586.13;;;5.56;60.90
63204;BME280;49297;43.210;27.914;2023-02-18T02:31:28;101595.38;;;5.79;59.67
63204;BME280;49297;43.210;27.914;2023-02-18T02:37:16;101584.94;;;6.09;57.44
63204;BME280;49297;43.210;27.914;2023-02-18T02:42:44;101577.66;;;6.44;55.66
63204;BME280;49297;43.210;27.914;2023-02-18T02:45:16;101578.72;;;6.56;55.16
63204;BME280;49297;43.210;27.914;2023-02-18T02:47:50;101584.28;;;6.66;54.81
63204;BME280;49297;43.210;27.914;2023-02-18T02:50:33;101582.78;;;6.76;54.85
63204;BME280;49297;43.210;27.914;2023-02-18T02:53:12;101583.84;;;6.88;53.62
63204;BME280;49297;43.210;27.914;2023-02-18T02:55:39;101575.19;;;7.00;53.30
63204;BME280;49297;43.210;27.914;2023-02-18T02:58:04;101576.31;;;7.11;53.08
63204;BME280;49297;43.210;27.914;2023-02-18T03:06:10;101573.50;;;7.28;52.82
63204;BME280;49297;43.210;27.914;2023-02-18T03:11:40;101564.78;;;7.13;54.52
63204;BME280;49297;43.210;27.914;2023-02-18T03:14:16;101566.53;;;6.98;55.23
63204;BME280;49297;43.210;27.914;2023-02-18T03:19:57;101556.38;;;6.63;57.02
63204;BME280;49297;43.210;27.914;2023-02-18T03:22:34;101565.75;;;6.53;57.13
63204;BME280;49297;43.210;27.914;2023-02-18T03:25:03;101573.13;;;6.46;57.13
63204;BME280;49297;43.210;27.914;2023-02-18T03:27:32;101567.38;;;6.40;57.11
63204;BME280;49297;43.210;27.914;2023-02-18T03:30:10;101563.00;;;6.40;57.08
63204;BME280;49297;43.210;27.914;2023-02-18T03:32:38;101565.53;;;6.42;57.05
63204;BME280;49297;43.210;27.914;2023-02-18T03:35:22;101561.69;;;6.47;56.43
63204;BME280;49297;43.210;27.914;2023-02-18T03:37:58;101560.41;;;6.55;55.52
63204;BME280;49297;43.210;27.914;2023-02-18T03:40:30;101554.56;;;6.64;55.20
63204;BME280;49297;43.210;27.914;2023-02-18T03:43:00;101553.09;;;6.74;55.16
63204;BME280;49297;43.210;27.914;2023-02-18T03:45:26;101553.47;;;6.82;54.02
63204;BME280;49297;43.210;27.914;2023-02-18T03:47:52;101544.38;;;6.88;54.48
63204;BME280;49297;43.210;27.914;2023-02-18T03:50:18;101537.00;;;6.93;54.01
63204;BME280;49297;43.210;27.914;2023-02-18T03:52:44;101541.06;;;6.99;53.98
63204;BME280;49297;43.210;27.914;2023-02-18T03:55:10;101545.22;;;7.03;53.42
63204;BME280;49297;43.210;27.914;2023-02-18T03:57:36;101557.31;;;7.05;53.17
63204;BME280;49297;43.210;27.914;2023-02-18T04:00:04;101545.78;;;7.08;53.17
63204;BME280;49297;43.210;27.914;2023-02-18T04:02:31;101549.06;;;7.12;53.37
63204;BME280;49297;43.210;27.914;2023-02-18T04:04:57;101556.09;;;7.11;52.88
63204;BME280;49297;43.210;27.914;2023-02-18T04:07:23;101552.72;;;7.09;53.05
63204;BME280;49297;43.210;27.914;2023-02-18T04:09:49;101552.72;;;7.09;53.33
63204;BME280;49297;43.210;27.914;2023-02-18T04:12:15;101550.16;;;7.08;53.20
63204;BME280;49297;43.210;27.914;2023-02-18T04:14:41;101545.94;;;7.05;53.45
63204;BME280;49297;43.210;27.914;2023-02-18T04:17:06;101540.03;;;7.01;53.14
63204;BME280;49297;43.210;27.914;2023-02-18T04:19:32;101541.75;;;7.02;52.92
63204;BME280;49297;43.210;27.914;2023-02-18T04:21:58;101541.44;;;7.07;53.02
63204;BME280;49297;43.210;27.914;2023-02-18T04:24:24;101534.00;;;7.14;52.82
63204;BME280;49297;43.210;27.914;2023-02-18T04:26:50;101534.75;;;7.16;52.46
63204;BME280;49297;43.210;27.914;2023-02-18T04:29:16;101527.59;;;7.18;52.97
63204;BME280;49297;43.210;27.914;2023-02-18T04:31:44;101530.97;;;7.20;52.75
63204;BME280;49297;43.210;27.914;2023-02-18T04:34:09;101522.97;;;7.21;52.33
63204;BME280;49297;43.210;27.914;2023-02-18T04:36:35;101519.50;;;7.21;52.79
63204;BME280;49297;43.210;27.914;2023-02-18T04:39:01;101512.25;;;7.24;52.55
63204;BME280;49297;43.210;27.914;2023-02-18T04:41:27;101512.09;;;7.28;52.50
63204;BME280;49297;43.210;27.914;2023-02-18T04:43:53;101500.41;;;7.32;52.12
63204;BME280;49297;43.210;27.914;2023-02-18T04:46:18;101499.47;;;7.33;52.11
63204;BME280;49297;43.210;27.914;2023-02-18T04:48:44;101497.56;;;7.35;51.81
63204;BME280;49297;43.210;27.914;2023-02-18T04:51:10;101504.25;;;7.40;52.10
63204;BME280;49297;43.210;27.914;2023-02-18T04:53:36;101503.19;;;7.43;51.98
63204;BME280;49297;43.210;27.914;2023-02-18T04:56:02;101489.81;;;7.46;51.65
63204;BME280;49297;43.210;27.914;2023-02-18T04:58:28;101489.63;;;7.49;51.36
63204;BME280;49297;43.210;27.914;2023-02-18T05:00:58;101490.38;;;7.51;51.14
63204;BME280;49297;43.210;27.914;2023-02-18T05:03:24;101486.59;;;7.55;51.18
63204;BME280;49297;43.210;27.914;2023-02-18T05:05:49;101481.88;;;7.60;51.44
63204;BME280;49297;43.210;27.914;2023-02-18T05:08:15;101485.34;;;7.61;51.16
63204;BME280;49297;43.210;27.914;2023-02-18T05:10:41;101484.22;;;7.65;51.24
63204;BME280;49297;43.210;27.914;2023-02-18T05:13:07;101487.50;;;7.69;51.08
63204;BME280;49297;43.210;27.914;2023-02-18T05:15:33;101484.13;;;7.67;51.02
63204;BME280;49297;43.210;27.914;2023-02-18T05:17:58;101482.13;;;7.70;50.41
63204;BME280;49297;43.210;27.914;2023-02-18T05:20:24;101492.44;;;7.73;50.70
63204;BME280;49297;43.210;27.914;2023-02-18T05:22:50;101488.78;;;7.76;50.53
63204;BME280;49297;43.210;27.914;2023-02-18T05:25:16;101488.69;;;7.77;50.98
63204;BME280;49297;43.210;27.914;2023-02-18T05:27:42;101493.75;;;7.80;50.85
63204;BME280;49297;43.210;27.914;2023-02-18T05:30:08;101483.97;;;7.82;50.85
63204;BME280;49297;43.210;27.914;2023-02-18T05:32:35;101488.09;;;7.87;50.52
63204;BME280;49297;43.210;27.914;2023-02-18T05:35:00;101492.19;;;7.91;50.31
63204;BME280;49297;43.210;27.914;2023-02-18T05:37:26;101490.28;;;7.93;50.28
63204;BME280;49297;43.210;27.914;2023-02-18T05:39:52;101496.31;;;7.95;49.72
63204;BME280;49297;43.210;27.914;2023-02-18T05:42:18;101495.19;;;7.99;49.71
63204;BME280;49297;43.210;27.914;2023-02-18T05:44:43;101493.19;;;8.03;49.38
63204;BME280;49297;43.210;27.914;2023-02-18T05:47:11;101501.75;;;8.06;49.60
63204;BME280;49297;43.210;27.914;2023-02-18T05:49:38;101505.94;;;8.09;48.96
63204;BME280;49297;43.210;27.914;2023-02-18T05:52:05;101502.06;;;8.14;49.48
63204;BME280;49297;43.210;27.914;2023-02-18T05:54:31;101498.19;;;8.20;49.12
63204;BME280;49297;43.210;27.914;2023-02-18T05:56:57;101492.59;;;8.25;48.90
63204;BME280;49297;43.210;27.914;2023-02-18T05:59:24;101496.81;;;8.27;48.64
63204;BME280;49297;43.210;27.914;2023-02-18T06:01:50;101492.19;;;8.31;48.60
63204;BME280;49297;43.210;27.914;2023-02-18T06:04:16;101491.84;;;8.35;48.28
63204;BME280;49297;43.210;27.914;2023-02-18T06:06:42;101488.28;;;8.36;48.58
63204;BME280;49297;43.210;27.914;2023-02-18T06:09:08;101488.28;;;8.36;48.48
63204;BME280;49297;43.210;27.914;2023-02-18T06:11:35;101479.28;;;8.39;48.46
63204;BME280;49297;43.210;27.914;2023-02-18T06:14:01;101486.19;;;8.42;48.94
63204;BME280;49297;43.210;27.914;2023-02-18T06:16:27;101485.25;;;8.43;48.84
63204;BME280;49297;43.210;27.914;2023-02-18T06:18:53;101489.47;;;8.45;48.99
63204;BME280;49297;43.210;27.914;2023-02-18T06:21:19;101489.59;;;8.44;49.28
63204;BME280;49297;43.210;27.914;2023-02-18T06:23:46;101489.47;;;8.45;48.91
63204;BME280;49297;43.210;27.914;2023-02-18T06:26:12;101484.19;;;8.45;48.64
63204;BME280;49297;43.210;27.914;2023-02-18T06:28:38;101479.75;;;8.46;48.55
63204;BME280;49297;43.210;27.914;2023-02-18T06:31:03;101480.69;;;8.45;48.41
63204;BME280;49297;43.210;27.914;2023-02-18T06:33:29;101472.69;;;8.46;48.84
63204;BME280;49297;43.210;27.914;2023-02-18T06:35:58;101469.00;;;8.49;48.18
63204;BME280;49297;43.210;27.914;2023-02-18T06:38:24;101457.47;;;8.50;48.66
63204;BME280;49297;43.210;27.914;2023-02-18T06:40:50;101458.00;;;8.55;48.10
63204;BME280;49297;43.210;27.914;2023-02-18T06:43:16;101462.25;;;8.57;47.68
63204;BME280;49297;43.210;27.914;2023-02-18T06:45:42;101463.91;;;8.58;48.19
63204;BME280;49297;43.210;27.914;2023-02-18T06:48:08;101462.75;;;8.63;47.70
63204;BME280;49297;43.210;27.914;2023-02-18T06:50:34;101465.19;;;8.66;47.74
63204;BME280;49297;43.210;27.914;2023-02-18T06:53:00;101455.25;;;8.69;47.43
63204;BME280;49297;43.210;27.914;2023-02-18T06:55:26;101464.66;;;8.73;47.48
63204;BME280;49297;43.210;27.914;2023-02-18T06:57:52;101464.44;;;8.76;47.81
63204;BME280;49297;43.210;27.914;2023-02-18T07:00:18;101465.28;;;8.77;47.19
63204;BME280;49297;43.210;27.914;2023-02-18T07:02:44;101458.84;;;8.81;47.08
63204;BME280;49297;43.210;27.914;2023-02-18T07:05:10;101469.91;;;8.86;47.23
63204;BME280;49297;43.210;27.914;2023-02-18T07:07:36;101464.94;;;8.94;46.87
63204;BME280;49297;43.210;27.914;2023-02-18T07:10:02;101466.19;;;9.02;47.03
63204;BME280;49297;43.210;27.914;2023-02-18T07:12:28;101467.44;;;9.09;47.26
63204;BME280;49297;43.210;27.914;2023-02-18T07:14:54;101462.66;;;9.14;46.11
63204;BME280;49297;43.210;27.914;2023-02-18T07:17:20;101465.81;;;9.19;46.16
63204;BME280;49297;43.210;27.914;2023-02-18T07:19:46;101465.50;;;9.24;45.87
63204;BME280;49297;43.210;27.914;2023-02-18T07:22:11;101455.75;;;9.24;46.66
63204;BME280;49297;43.210;27.914;2023-02-18T07:24:37;101454.69;;;9.27;46.70
63204;BME280;49297;43.210;27.914;2023-02-18T07:27:03;101457.56;;;9.24;46.61
63204;BME280;49297;43.210;27.914;2023-02-18T07:29:29;101463.47;;;9.27;47.04
63204;BME280;49297;43.210;27.914;2023-02-18T07:31:55;101459.66;;;9.31;46.40
63204;BME280;49297;43.210;27.914;2023-02-18T07:34:21;101452.25;;;9.37;46.00
63204;BME280;49297;43.210;27.914;2023-02-18T07:36:47;101453.59;;;9.42;47.14
63204;BME280;49297;43.210;27.914;2023-02-18T07:39:12;101457.56;;;9.48;46.50
63204;BME280;49297;43.210;27.914;2023-02-18T07:41:39;101447.63;;;9.51;46.19
63204;BME280;49297;43.210;27.914;2023-02-18T07:44:06;101448.84;;;9.59;46.82
63204;BME280;49297;43.210;27.914;2023-02-18T07:46:33;101452.00;;;9.64;46.79
63204;BME280;49297;43.210;27.914;2023-02-18T07:48:58;101455.25;;;9.67;46.77
63204;BME280;49297;43.210;27.914;2023-02-18T07:51:24;101453.97;;;9.73;47.14
63204;BME280;49297;43.210;27.914;2023-02-18T07:53:50;101447.41;;;9.79;45.95
63204;BME280;49297;43.210;27.914;2023-02-18T07:56:16;101443.44;;;9.84;46.80
63204;BME280;49297;43.210;27.914;2023-02-18T07:58:42;101436.84;;;9.90;46.38
63204;BME280;49297;43.210;27.914;2023-02-18T08:01:14;101441.66;;;9.96;46.88
63204;BME280;49297;43.210;27.914;2023-02-18T08:03:40;101444.69;;;10.03;46.29
63204;BME280;49297;43.210;27.914;2023-02-18T08:06:07;101436.53;;;10.06;46.91
63204;BME280;49297;43.210;27.914;2023-02-18T08:08:33;101432.78;;;10.08;46.40
63204;BME280;49297;43.210;27.914;2023-02-18T08:11:01;101423.44;;;10.16;46.28
63204;BME280;49297;43.210;27.914;2023-02-18T08:13:28;101420.09;;;10.25;46.39
63204;BME280;49297;43.210;27.914;2023-02-18T08:15:55;101404.59;;;10.32;46.30
63204;BME280;49297;43.210;27.914;2023-02-18T08:18:22;101406.91;;;10.36;46.84
63204;BME280;49297;43.210;27.914;2023-02-18T08:20:49;101406.41;;;10.42;46.88
63204;BME280;49297;43.210;27.914;2023-02-18T08:23:18;101403.28;;;10.48;46.28
63204;BME280;49297;43.210;27.914;2023-02-18T08:25:51;101410.03;;;10.53;46.61
63204;BME280;49297;43.210;27.914;2023-02-18T08:28:23;101409.06;;;10.54;46.61
63204;BME280;49297;43.210;27.914;2023-02-18T08:30:52;101397.50;;;10.55;46.83
63204;BME280;49297;43.210;27.914;2023-02-18T08:33:19;101395.94;;;10.63;46.59
63204;BME280;49297;43.210;27.914;2023-02-18T08:35:46;101388.94;;;10.74;46.39
63204;BME280;49297;43.210;27.914;2023-02-18T08:38:13;101386.28;;;10.85;46.32
63204;BME280;49297;43.210;27.914;2023-02-18T08:40:39;101389.88;;;10.95;45.96
63204;BME280;49297;43.210;27.914;2023-02-18T08:43:08;101389.97;;;11.05;45.53
63204;BME280;49297;43.210;27.914;2023-02-18T08:45:36;101378.75;;;11.13;45.08
63204;BME280;49297;43.210;27.914;2023-02-18T08:48:04;101383.31;;;11.22;44.93
63204;BME280;49297;43.210;27.914;2023-02-18T08:50:30;101387.72;;;11.33;44.63
63204;BME280;49297;43.210;27.914;2023-02-18T08:52:56;101383.59;;;11.40;44.29
63204;BME280;49297;43.210;27.914;2023-02-18T08:55:24;101377.41;;;11.51;44.51
63204;BME280;49297;43.210;27.914;2023-02-18T08:57:51;101374.56;;;11.63;44.72
63204;BME280;49297;43.210;27.914;2023-02-18T09:00:17;101376.19;;;11.76;43.90
63204;BME280;49297;43.210;27.914;2023-02-18T09:02:43;101373.63;;;11.86;44.11
63204;BME280;49297;43.210;27.914;2023-02-18T09:05:10;101375.38;;;11.96;44.21
63204;BME280;49297;43.210;27.914;2023-02-18T09:07:36;101375.56;;;12.05;43.52
63204;BME280;49297;43.210;27.914;2023-02-18T09:10:02;101366.97;;;12.12;42.29
63204;BME280;49297;43.210;27.914;2023-02-18T09:12:28;101368.41;;;12.26;41.39
63204;BME280;49297;43.210;27.914;2023-02-18T09:14:54;101363.59;;;12.41;41.01
63204;BME280;49297;43.210;27.914;2023-02-18T09:17:20;101359.00;;;12.53;40.63
63204;BME280;49297;43.210;27.914;2023-02-18T09:19:46;101354.63;;;12.73;39.91
63204;BME280;49297;43.210;27.914;2023-02-18T09:22:12;101348.78;;;12.89;39.19
63204;BME280;49297;43.210;27.914;2023-02-18T09:24:39;101344.16;;;13.01;39.25
63204;BME280;49297;43.210;27.914;2023-02-18T09:27:05;101335.34;;;13.10;39.02
63204;BME280;49297;43.210;27.914;2023-02-18T09:29:32;101344.88;;;13.22;38.93
63204;BME280;49297;43.210;27.914;2023-02-18T09:32:01;101335.09;;;13.32;38.35
63204;BME280;49297;43.210;27.914;2023-02-18T09:34:28;101324.19;;;13.36;38.08
63204;BME280;49297;43.210;27.914;2023-02-18T09:36:54;101316.19;;;13.45;37.95
63204;BME280;49297;43.210;27.914;2023-02-18T09:39:20;101320.66;;;13.55;37.94
63204;BME280;49297;43.210;27.914;2023-02-18T09:41:51;101322.78;;;13.61;37.26
63204;BME280;49297;43.210;27.914;2023-02-18T09:48:17;101312.78;;;13.82;36.25
63204;BME280;49297;43.210;27.914;2023-02-18T09:50:47;101307.28;;;13.94;35.78
63204;BME280;49297;43.210;27.914;2023-02-18T09:53:16;101307.69;;;13.99;35.52
63204;BME280;49297;43.210;27.914;2023-02-18T09:55:43;101304.59;;;14.03;35.73
63204;BME280;49297;43.210;27.914;2023-02-18T09:58:20;101297.16;;;14.07;35.21
63204;BME280;49297;43.210;27.914;2023-02-18T10:01:04;101295.84;;;14.11;35.82
63204;BME280;49297;43.210;27.914;2023-02-18T10:03:31;101294.44;;;14.17;35.51
63204;BME280;49297;43.210;27.914;2023-02-18T10:06:02;101298.25;;;14.14;35.41
63204;BME280;49297;43.210;27.914;2023-02-18T10:08:33;101295.97;;;14.19;35.44
63204;BME280;49297;43.210;27.914;2023-02-18T10:10:59;101281.22;;;14.25;35.11
63204;BME280;49297;43.210;27.914;2023-02-18T10:13:31;101289.22;;;14.25;35.34
63204;BME280;49297;43.210;27.914;2023-02-18T10:15:58;101286.41;;;14.26;35.15
63204;BME280;49297;43.210;27.914;2023-02-18T10:18:30;101283.75;;;14.26;35.22
63204;BME280;49297;43.210;27.914;2023-02-18T10:21:19;101276.97;;;14.32;35.36
63204;BME280;49297;43.210;27.914;2023-02-18T10:24:00;101282.16;;;14.34;35.67
63204;BME280;49297;43.210;27.914;2023-02-18T10:26:29;101270.50;;;14.35;35.59
63204;BME280;49297;43.210;27.914;2023-02-18T10:28:57;101271.06;;;14.38;35.36
63204;BME280;49297;43.210;27.914;2023-02-18T10:31:30;101282.97;;;14.44;35.38
63204;BME280;49297;43.210;27.914;2023-02-18T10:33:59;101277.16;;;14.48;35.23
63204;BME280;49297;43.210;27.914;2023-02-18T10:36:44;101282.75;;;14.55;35.36
63204;BME280;49297;43.210;27.914;2023-02-18T10:45:05;101277.31;;;14.75;35.92
63204;BME280;49297;43.210;27.914;2023-02-18T10:47:49;101263.69;;;14.78;35.89
63204;BME280;49297;43.210;27.914;2023-02-18T10:50:44;101271.75;;;14.86;35.96
63204;BME280;49297;43.210;27.914;2023-02-18T10:53:29;101273.81;;;14.92;36.15
63204;BME280;49297;43.210;27.914;2023-02-18T10:55:56;101263.69;;;14.96;36.56
63204;BME280;49297;43.210;27.914;2023-02-18T10:58:45;101264.38;;;14.98;36.04
63204;BME280;49297;43.210;27.914;2023-02-18T11:01:16;101259.28;;;15.04;35.99
63204;BME280;49297;43.210;27.914;2023-02-18T11:03:51;101264.81;;;15.11;36.05
63204;BME280;49297;43.210;27.914;2023-02-18T11:06:32;101249.03;;;15.18;36.48
63204;BME280;49297;43.210;27.914;2023-02-18T11:09:03;101256.25;;;15.26;36.48
63204;BME280;49297;43.210;27.914;2023-02-18T11:11:32;101251.44;;;15.29;36.90
63204;BME280;49297;43.210;27.914;2023-02-18T11:14:01;101240.00;;;15.37;36.76
63204;BME280;49297;43.210;27.914;2023-02-18T11:16:40;101233.44;;;15.49;36.38
63204;BME280;49297;43.210;27.914;2023-02-18T11:19:30;101241.28;;;15.51;37.14
63204;BME280;49297;43.210;27.914;2023-02-18T11:22:18;101234.13;;;15.59;36.96
63204;BME280;49297;43.210;27.914;2023-02-18T11:24:45;101242.03;;;15.69;37.54
63204;BME280;49297;43.210;27.914;2023-02-18T11:27:24;101239.78;;;15.74;37.70
63204;BME280;49297;43.210;27.914;2023-02-18T11:29:53;101248.47;;;15.76;38.06
63204;BME280;49297;43.210;27.914;2023-02-18T11:32:20;101238.59;;;15.77;38.03
63204;BME280;49297;43.210;27.914;2023-02-18T11:34:48;101240.59;;;15.75;38.44
63204;BME280;49297;43.210;27.914;2023-02-18T11:37:19;101248.00;;;15.81;38.86
63204;BME280;49297;43.210;27.914;2023-02-18T11:39:48;101235.16;;;15.85;38.58
63204;BME280;49297;43.210;27.914;2023-02-18T11:42:17;101225.81;;;15.89;38.33
63204;BME280;49297;43.210;27.914;2023-02-18T11:44:56;101232.66;;;15.91;38.37
63204;BME280;49297;43.210;27.914;2023-02-18T11:47:31;101223.66;;;15.92;38.15
63204;BME280;49297;43.210;27.914;2023-02-18T11:52:40;101205.19;;;15.99;37.88
63204;BME280;49297;43.210;27.914;2023-02-18T11:57:38;101194.53;;;16.15;37.66
63204;BME280;49297;43.210;27.914;2023-02-18T12:05:41;101169.88;;;16.38;37.48
63204;BME280;49297;43.210;27.914;2023-02-18T12:10:41;101157.03;;;16.42;37.60
63204;BME280;49297;43.210;27.914;2023-02-18T12:13:26;101164.19;;;16.41;37.51
63204;BME280;49297;43.210;27.914;2023-02-18T12:37:48;101165.22;;;16.40;38.05
63204;BME280;49297;43.210;27.914;2023-02-18T12:46:20;101172.38;;;16.31;38.59
63204;BME280;49297;43.210;27.914;2023-02-18T12:49:45;101148.84;;;16.35;38.98
63204;BME280;49297;43.210;27.914;2023-02-18T12:54:45;101158.34;;;16.37;38.97
63204;BME280;49297;43.210;27.914;2023-02-18T13:14:17;101149.94;;;15.99;39.90
63204;BME280;49297;43.210;27.914;2023-02-18T13:16:48;101145.94;;;16.04;40.09
63204;BME280;49297;43.210;27.914;2023-02-18T13:19:17;101141.75;;;16.01;39.97
63204;BME280;49297;43.210;27.914;2023-02-18T13:21:48;101144.28;;;16.03;39.95
63204;BME280;49297;43.210;27.914;2023-02-18T13:26:57;101149.09;;;15.99;39.80
63204;BME280;49297;43.210;27.914;2023-02-18T13:33:21;101142.41;;;15.95;40.48
63204;BME280;49297;43.210;27.914;2023-02-18T13:35:28;101145.22;;;15.93;40.33
63204;BME280;49297;43.210;27.914;2023-02-18T13:40:40;101149.41;;;15.96;40.79
63204;BME280;49297;43.210;27.914;2023-02-18T13:46:01;101141.06;;;15.91;41.23
63204;BME280;49297;43.210;27.914;2023-02-18T13:48:28;101135.22;;;15.87;40.89
63204;BME280;49297;43.210;27.914;2023-02-18T13:51:02;101135.38;;;15.86;40.98
63204;BME280;49297;43.210;27.914;2023-02-18T13:53:36;101126.69;;;15.84;41.19
63204;BME280;49297;43.210;27.914;2023-02-18T13:56:06;101146.34;;;15.83;41.19
63204;BME280;49297;43.210;27.914;2023-02-18T13:58:51;101149.38;;;15.79;41.36
63204;BME280;49297;43.210;27.914;2023-02-18T14:01:22;101146.69;;;15.79;41.78
63204;BME280;49297;43.210;27.914;2023-02-18T14:03:54;101144.78;;;15.72;41.66
63204;BME280;49297;43.210;27.914;2023-02-18T14:06:25;101145.13;;;15.69;41.88
63204;BME280;49297;43.210;27.914;2023-02-18T14:09:02;101148.13;;;15.66;41.96
63204;BME280;49297;43.210;27.914;2023-02-18T14:11:37;101134.94;;;15.64;42.15
63204;BME280;49297;43.210;27.914;2023-02-18T14:17:41;101132.72;;;15.59;42.06
63204;BME280;49297;43.210;27.914;2023-02-18T14:22:43;101135.56;;;15.58;42.60
63204;BME280;49297;43.210;27.914;2023-02-18T14:27:37;101138.72;;;15.53;42.69
63204;BME280;49297;43.210;27.914;2023-02-18T14:30:17;101139.38;;;15.55;42.54
63204;BME280;49297;43.210;27.914;2023-02-18T14:32:44;101136.34;;;15.50;42.61
63204;BME280;49297;43.210;27.914;2023-02-18T14:49:12;101133.78;;;15.32;42.93
63204;BME280;49297;43.210;27.914;2023-02-18T14:51:42;101139.78;;;15.34;42.52
63204;BME280;49297;43.210;27.914;2023-02-18T14:54:15;101155.59;;;15.28;42.65
63204;BME280;49297;43.210;27.914;2023-02-18T14:57:03;101144.56;;;15.22;42.82
63204;BME280;49297;43.210;27.914;2023-02-18T14:59:41;101142.50;;;15.16;42.86
63204;BME280;49297;43.210;27.914;2023-02-18T15:02:23;101144.81;;;15.11;43.16
63204;BME280;49297;43.210;27.914;2023-02-18T15:04:51;101145.28;;;15.07;43.30
63204;BME280;49297;43.210;27.914;2023-02-18T15:07:20;101138.56;;;15.02;43.07
63204;BME280;49297;43.210;27.914;2023-02-18T15:09:48;101137.06;;;15.00;43.16
63204;BME280;49297;43.210;27.914;2023-02-18T15:12:20;101139.53;;;14.93;43.65
63204;BME280;49297;43.210;27.914;2023-02-18T15:14:49;101144.31;;;14.90;43.52
63204;BME280;49297;43.210;27.914;2023-02-18T15:17:23;101145.19;;;14.90;43.98